METAR Data
IDs: Format: Raw Decoded Include TAF

Data at: 1314 UTC 26 Feb 2021

LOWK 261250Z VRB01KT CAVOK 14/M01 Q1027 NOSIG